sensor_id;sensor_type;location;lat;lon;timestamp;pressure;altitude;pressure_sealevel;temperature
65600;BMP280;52272;-29.642;-50.764;2022-09-30T00:00:48;101628.06;;;18.17
65600;BMP280;52272;-29.642;-50.764;2022-09-30T00:03:18;101636.72;;;18.30
65600;BMP280;52272;-29.642;-50.764;2022-09-30T00:05:59;101641.75;;;18.37
65600;BMP280;52272;-29.642;-50.764;2022-09-30T00:08:39;101642.69;;;18.49
65600;BMP280;52272;-29.642;-50.764;2022-09-30T00:11:13;101638.41;;;18.42
65600;BMP280;52272;-29.642;-50.764;2022-09-30T00:13:49;101644.00;;;18.53
65600;BMP280;52272;-29.642;-50.764;2022-09-30T00:16:20;101638.81;;;18.64
65600;BMP280;52272;-29.642;-50.764;2022-09-30T00:18:53;101638.66;;;18.82
65600;BMP280;52272;-29.642;-50.764;2022-09-30T00:21:25;101632.69;;;18.78
65600;BMP280;52272;-29.642;-50.764;2022-09-30T00:23:56;101633.97;;;18.82
65600;BMP280;52272;-29.642;-50.764;2022-09-30T00:26:27;101628.19;;;18.89
65600;BMP280;52272;-29.642;-50.764;2022-09-30T00:28:58;101616.50;;;18.78
65600;BMP280;52272;-29.642;-50.764;2022-09-30T00:31:32;101627.19;;;18.87
65600;BMP280;52272;-29.642;-50.764;2022-09-30T00:34:03;101623.81;;;18.49
65600;BMP280;52272;-29.642;-50.764;2022-09-30T00:36:49;101627.25;;;18.49
65600;BMP280;52272;-29.642;-50.764;2022-09-30T00:39:25;101634.53;;;18.72
65600;BMP280;52272;-29.642;-50.764;2022-09-30T00:42:01;101641.56;;;18.55
65600;BMP280;52272;-29.642;-50.764;2022-09-30T00:44:44;101633.81;;;18.86
65600;BMP280;52272;-29.642;-50.764;2022-09-30T00:50:14;101631.75;;;19.10
65600;BMP280;52272;-29.642;-50.764;2022-09-30T00:52:51;101643.13;;;19.28
65600;BMP280;52272;-29.642;-50.764;2022-09-30T00:58:15;101613.47;;;19.34
65600;BMP280;52272;-29.642;-50.764;2022-09-30T01:00:47;101638.97;;;19.47
65600;BMP280;52272;-29.642;-50.764;2022-09-30T01:03:20;101629.19;;;19.70
65600;BMP280;52272;-29.642;-50.764;2022-09-30T01:05:51;101636.97;;;20.22
65600;BMP280;52272;-29.642;-50.764;2022-09-30T01:08:23;101638.34;;;20.57
65600;BMP280;52272;-29.642;-50.764;2022-09-30T01:10:54;101630.31;;;20.68
65600;BMP280;52272;-29.642;-50.764;2022-09-30T01:13:28;101621.75;;;20.24
65600;BMP280;52272;-29.642;-50.764;2022-09-30T01:21:30;101628.59;;;19.80
65600;BMP280;52272;-29.642;-50.764;2022-09-30T01:30:03;101612.09;;;19.58
65600;BMP280;52272;-29.642;-50.764;2022-09-30T01:32:59;101607.38;;;19.73
65600;BMP280;52272;-29.642;-50.764;2022-09-30T01:38:51;101609.31;;;19.18
65600;BMP280;52272;-29.642;-50.764;2022-09-30T01:41:52;101599.69;;;19.03
65600;BMP280;52272;-29.642;-50.764;2022-09-30T01:47:41;101608.84;;;19.05
65600;BMP280;52272;-29.642;-50.764;2022-09-30T01:58:56;101616.81;;;19.29
65600;BMP280;52272;-29.642;-50.764;2022-09-30T02:01:41;101638.66;;;19.80
65600;BMP280;52272;-29.642;-50.764;2022-09-30T02:04:36;101636.91;;;19.97
65600;BMP280;52272;-29.642;-50.764;2022-09-30T02:07:12;101634.88;;;20.31
65600;BMP280;52272;-29.642;-50.764;2022-09-30T02:09:58;101639.81;;;20.58
65600;BMP280;52272;-29.642;-50.764;2022-09-30T02:12:36;101633.38;;;20.30
65600;BMP280;52272;-29.642;-50.764;2022-09-30T02:15:16;101615.91;;;20.31
65600;BMP280;52272;-29.642;-50.764;2022-09-30T02:17:55;101643.25;;;20.59
65600;BMP280;52272;-29.642;-50.764;2022-09-30T02:20:31;101640.78;;;19.70
65600;BMP280;52272;-29.642;-50.764;2022-09-30T02:23:14;101641.53;;;19.71
65600;BMP280;52272;-29.642;-50.764;2022-09-30T02:25:48;101639.47;;;20.06
65600;BMP280;52272;-29.642;-50.764;2022-09-30T02:28:26;101642.94;;;20.51
65600;BMP280;52272;-29.642;-50.764;2022-09-30T02:30:58;101643.03;;;20.88
65600;BMP280;52272;-29.642;-50.764;2022-09-30T02:33:46;101643.50;;;21.53
65600;BMP280;52272;-29.642;-50.764;2022-09-30T02:36:38;101638.88;;;21.65
65600;BMP280;52272;-29.642;-50.764;2022-09-30T02:41:54;101619.56;;;20.79
65600;BMP280;52272;-29.642;-50.764;2022-09-30T02:44:28;101613.03;;;20.15
65600;BMP280;52272;-29.642;-50.764;2022-09-30T02:50:38;101617.66;;;19.55
65600;BMP280;52272;-29.642;-50.764;2022-09-30T02:53:39;101609.88;;;20.16
65600;BMP280;52272;-29.642;-50.764;2022-09-30T02:56:24;101607.75;;;20.51
65600;BMP280;52272;-29.642;-50.764;2022-09-30T02:58:56;101605.50;;;20.44
65600;BMP280;52272;-29.642;-50.764;2022-09-30T03:01:28;101609.34;;;20.63
65600;BMP280;52272;-29.642;-50.764;2022-09-30T03:04:03;101608.19;;;20.44
65600;BMP280;52272;-29.642;-50.764;2022-09-30T03:06:35;101592.31;;;19.67
65600;BMP280;52272;-29.642;-50.764;2022-09-30T03:09:06;101589.41;;;19.36
65600;BMP280;52272;-29.642;-50.764;2022-09-30T03:11:39;101603.16;;;19.52
65600;BMP280;52272;-29.642;-50.764;2022-09-30T03:14:27;101614.28;;;19.40
65600;BMP280;52272;-29.642;-50.764;2022-09-30T03:20:18;101605.13;;;19.72
65600;BMP280;52272;-29.642;-50.764;2022-09-30T03:25:55;101627.56;;;20.37
65600;BMP280;52272;-29.642;-50.764;2022-09-30T03:28:30;101637.31;;;20.55
65600;BMP280;52272;-29.642;-50.764;2022-09-30T03:42:42;101622.69;;;20.41
65600;BMP280;52272;-29.642;-50.764;2022-09-30T03:45:28;101609.72;;;20.06
65600;BMP280;52272;-29.642;-50.764;2022-09-30T03:48:03;101600.34;;;19.61
65600;BMP280;52272;-29.642;-50.764;2022-09-30T03:50:36;101592.78;;;20.30
65600;BMP280;52272;-29.642;-50.764;2022-09-30T03:53:10;101602.47;;;20.93
65600;BMP280;52272;-29.642;-50.764;2022-09-30T03:55:51;101597.50;;;20.86
65600;BMP280;52272;-29.642;-50.764;2022-09-30T03:58:22;101598.00;;;20.90
65600;BMP280;52272;-29.642;-50.764;2022-09-30T04:00:53;101591.91;;;20.39
65600;BMP280;52272;-29.642;-50.764;2022-09-30T04:03:25;101586.41;;;19.88
65600;BMP280;52272;-29.642;-50.764;2022-09-30T04:06:00;101578.09;;;19.72
65600;BMP280;52272;-29.642;-50.764;2022-09-30T04:08:31;101577.50;;;19.28
65600;BMP280;52272;-29.642;-50.764;2022-09-30T04:11:03;101579.84;;;19.20
65600;BMP280;52272;-29.642;-50.764;2022-09-30T04:13:37;101582.00;;;19.51
65600;BMP280;52272;-29.642;-50.764;2022-09-30T04:16:11;101564.19;;;19.79
65600;BMP280;52272;-29.642;-50.764;2022-09-30T04:18:42;101576.41;;;19.20
65600;BMP280;52272;-29.642;-50.764;2022-09-30T04:21:14;101583.78;;;18.76
65600;BMP280;52272;-29.642;-50.764;2022-09-30T04:23:44;101575.69;;;18.76
65600;BMP280;52272;-29.642;-50.764;2022-09-30T04:26:16;101573.16;;;19.50
65600;BMP280;52272;-29.642;-50.764;2022-09-30T04:28:48;101573.34;;;19.47
65600;BMP280;52272;-29.642;-50.764;2022-09-30T04:31:19;101574.44;;;19.95
65600;BMP280;52272;-29.642;-50.764;2022-09-30T04:33:49;101588.91;;;20.12
65600;BMP280;52272;-29.642;-50.764;2022-09-30T04:36:19;101581.69;;;20.28
65600;BMP280;52272;-29.642;-50.764;2022-09-30T04:38:49;101556.81;;;19.39
65600;BMP280;52272;-29.642;-50.764;2022-09-30T04:41:22;101541.25;;;19.00
65600;BMP280;52272;-29.642;-50.764;2022-09-30T04:43:53;101532.59;;;18.81
65600;BMP280;52272;-29.642;-50.764;2022-09-30T04:46:25;101525.66;;;18.75
65600;BMP280;52272;-29.642;-50.764;2022-09-30T04:48:55;101525.44;;;18.64
65600;BMP280;52272;-29.642;-50.764;2022-09-30T04:51:26;101513.34;;;18.45
65600;BMP280;52272;-29.642;-50.764;2022-09-30T04:53:56;101498.09;;;18.42
65600;BMP280;52272;-29.642;-50.764;2022-09-30T04:56:27;101491.94;;;18.42
65600;BMP280;52272;-29.642;-50.764;2022-09-30T04:59:00;101500.78;;;18.42
65600;BMP280;52272;-29.642;-50.764;2022-09-30T05:01:31;101501.34;;;18.60
65600;BMP280;52272;-29.642;-50.764;2022-09-30T05:04:04;101512.59;;;19.22
65600;BMP280;52272;-29.642;-50.764;2022-09-30T05:06:34;101498.28;;;19.56
65600;BMP280;52272;-29.642;-50.764;2022-09-30T05:09:07;101495.84;;;19.78
65600;BMP280;52272;-29.642;-50.764;2022-09-30T05:11:38;101492.00;;;19.65
65600;BMP280;52272;-29.642;-50.764;2022-09-30T05:14:10;101492.94;;;19.82
65600;BMP280;52272;-29.642;-50.764;2022-09-30T05:16:41;101496.00;;;19.95
65600;BMP280;52272;-29.642;-50.764;2022-09-30T05:19:11;101473.59;;;19.29
65600;BMP280;52272;-29.642;-50.764;2022-09-30T05:21:42;101480.19;;;18.88
65600;BMP280;52272;-29.642;-50.764;2022-09-30T05:24:13;101491.56;;;18.77
65600;BMP280;52272;-29.642;-50.764;2022-09-30T05:26:44;101478.72;;;18.58
65600;BMP280;52272;-29.642;-50.764;2022-09-30T05:29:14;101476.16;;;18.98
65600;BMP280;52272;-29.642;-50.764;2022-09-30T05:31:44;101470.91;;;18.31
65600;BMP280;52272;-29.642;-50.764;2022-09-30T05:34:14;101458.69;;;18.30
65600;BMP280;52272;-29.642;-50.764;2022-09-30T05:36:45;101473.69;;;18.80
65600;BMP280;52272;-29.642;-50.764;2022-09-30T05:39:15;101480.38;;;19.19
65600;BMP280;52272;-29.642;-50.764;2022-09-30T05:41:46;101470.19;;;19.48
65600;BMP280;52272;-29.642;-50.764;2022-09-30T05:44:16;101460.38;;;19.71
65600;BMP280;52272;-29.642;-50.764;2022-09-30T05:46:48;101446.59;;;19.09
65600;BMP280;52272;-29.642;-50.764;2022-09-30T05:49:18;101440.53;;;19.34
65600;BMP280;52272;-29.642;-50.764;2022-09-30T05:51:51;101413.44;;;19.08
65600;BMP280;52272;-29.642;-50.764;2022-09-30T05:54:22;101431.00;;;18.98
65600;BMP280;52272;-29.642;-50.764;2022-09-30T05:56:52;101419.94;;;18.33
65600;BMP280;52272;-29.642;-50.764;2022-09-30T05:59:23;101417.16;;;18.13
65600;BMP280;52272;-29.642;-50.764;2022-09-30T06:01:55;101430.09;;;17.95
65600;BMP280;52272;-29.642;-50.764;2022-09-30T06:04:25;101435.59;;;18.44
65600;BMP280;52272;-29.642;-50.764;2022-09-30T06:06:55;101415.19;;;17.99
65600;BMP280;52272;-29.642;-50.764;2022-09-30T06:09:25;101397.63;;;18.04
65600;BMP280;52272;-29.642;-50.764;2022-09-30T06:11:56;101400.06;;;18.02
65600;BMP280;52272;-29.642;-50.764;2022-09-30T06:14:29;101401.72;;;18.77
65600;BMP280;52272;-29.642;-50.764;2022-09-30T06:17:00;101416.47;;;19.16
65600;BMP280;52272;-29.642;-50.764;2022-09-30T06:19:29;101415.88;;;19.46
65600;BMP280;52272;-29.642;-50.764;2022-09-30T06:22:02;101416.59;;;19.67
65600;BMP280;52272;-29.642;-50.764;2022-09-30T06:24:33;101418.84;;;19.74
65600;BMP280;52272;-29.642;-50.764;2022-09-30T06:27:03;101413.31;;;19.57
65600;BMP280;52272;-29.642;-50.764;2022-09-30T06:29:33;101402.97;;;19.56
65600;BMP280;52272;-29.642;-50.764;2022-09-30T06:32:04;101398.22;;;19.71
65600;BMP280;52272;-29.642;-50.764;2022-09-30T06:34:35;101395.03;;;19.27
65600;BMP280;52272;-29.642;-50.764;2022-09-30T06:37:05;101392.75;;;18.51
65600;BMP280;52272;-29.642;-50.764;2022-09-30T06:39:39;101413.41;;;19.23
65600;BMP280;52272;-29.642;-50.764;2022-09-30T06:42:10;101436.06;;;19.71
65600;BMP280;52272;-29.642;-50.764;2022-09-30T06:44:46;101446.56;;;19.94
65600;BMP280;52272;-29.642;-50.764;2022-09-30T06:47:21;101433.56;;;20.23
65600;BMP280;52272;-29.642;-50.764;2022-09-30T06:49:53;101413.66;;;20.26
65600;BMP280;52272;-29.642;-50.764;2022-09-30T06:52:27;101401.94;;;20.04
65600;BMP280;52272;-29.642;-50.764;2022-09-30T06:54:57;101427.53;;;20.39
65600;BMP280;52272;-29.642;-50.764;2022-09-30T06:57:27;101430.13;;;20.54
65600;BMP280;52272;-29.642;-50.764;2022-09-30T06:59:57;101428.41;;;19.69
65600;BMP280;52272;-29.642;-50.764;2022-09-30T07:02:27;101425.47;;;18.73
65600;BMP280;52272;-29.642;-50.764;2022-09-30T07:04:58;101411.72;;;18.71
65600;BMP280;52272;-29.642;-50.764;2022-09-30T07:07:28;101405.75;;;18.67
65600;BMP280;52272;-29.642;-50.764;2022-09-30T07:09:59;101411.94;;;18.53
65600;BMP280;52272;-29.642;-50.764;2022-09-30T07:12:28;101393.13;;;18.44
65600;BMP280;52272;-29.642;-50.764;2022-09-30T07:14:59;101391.31;;;18.21
65600;BMP280;52272;-29.642;-50.764;2022-09-30T07:17:28;101373.66;;;18.06
65600;BMP280;52272;-29.642;-50.764;2022-09-30T07:20:00;101350.22;;;17.68
65600;BMP280;52272;-29.642;-50.764;2022-09-30T07:22:30;101345.59;;;17.69
65600;BMP280;52272;-29.642;-50.764;2022-09-30T07:25:02;101349.69;;;17.93
65600;BMP280;52272;-29.642;-50.764;2022-09-30T07:27:33;101361.78;;;18.12
65600;BMP280;52272;-29.642;-50.764;2022-09-30T07:30:03;101363.75;;;18.46
65600;BMP280;52272;-29.642;-50.764;2022-09-30T07:32:40;101367.16;;;18.61
65600;BMP280;52272;-29.642;-50.764;2022-09-30T07:35:10;101383.78;;;18.94
65600;BMP280;52272;-29.642;-50.764;2022-09-30T07:37:40;101372.31;;;18.79
65600;BMP280;52272;-29.642;-50.764;2022-09-30T07:40:11;101378.81;;;18.87
65600;BMP280;52272;-29.642;-50.764;2022-09-30T07:42:41;101394.59;;;19.54
65600;BMP280;52272;-29.642;-50.764;2022-09-30T07:45:15;101414.44;;;19.71
65600;BMP280;52272;-29.642;-50.764;2022-09-30T07:47:47;101411.84;;;20.13
65600;BMP280;52272;-29.642;-50.764;2022-09-30T07:50:21;101396.16;;;19.40
65600;BMP280;52272;-29.642;-50.764;2022-09-30T07:52:52;101367.44;;;19.03
65600;BMP280;52272;-29.642;-50.764;2022-09-30T07:55:22;101358.78;;;18.59
65600;BMP280;52272;-29.642;-50.764;2022-09-30T07:57:53;101358.69;;;18.53
65600;BMP280;52272;-29.642;-50.764;2022-09-30T08:00:23;101347.41;;;18.35
65600;BMP280;52272;-29.642;-50.764;2022-09-30T08:03:10;101338.75;;;18.31
65600;BMP280;52272;-29.642;-50.764;2022-09-30T08:05:41;101384.34;;;18.98
65600;BMP280;52272;-29.642;-50.764;2022-09-30T08:08:18;101375.97;;;19.36
65600;BMP280;52272;-29.642;-50.764;2022-09-30T08:10:48;101373.66;;;18.69
65600;BMP280;52272;-29.642;-50.764;2022-09-30T08:13:18;101368.78;;;18.53
65600;BMP280;52272;-29.642;-50.764;2022-09-30T08:15:49;101361.91;;;18.52
65600;BMP280;52272;-29.642;-50.764;2022-09-30T08:18:20;101356.13;;;18.79
65600;BMP280;52272;-29.642;-50.764;2022-09-30T08:20:50;101351.78;;;18.67
65600;BMP280;52272;-29.642;-50.764;2022-09-30T08:23:21;101348.66;;;18.54
65600;BMP280;52272;-29.642;-50.764;2022-09-30T08:26:03;101369.25;;;18.71
65600;BMP280;52272;-29.642;-50.764;2022-09-30T08:28:35;101372.19;;;19.28
65600;BMP280;52272;-29.642;-50.764;2022-09-30T08:31:11;101376.88;;;19.53
65600;BMP280;52272;-29.642;-50.764;2022-09-30T08:33:42;101380.81;;;19.77
65600;BMP280;52272;-29.642;-50.764;2022-09-30T08:36:15;101382.72;;;18.86
65600;BMP280;52272;-29.642;-50.764;2022-09-30T08:38:46;101362.75;;;18.78
65600;BMP280;52272;-29.642;-50.764;2022-09-30T08:41:42;101366.88;;;18.59
65600;BMP280;52272;-29.642;-50.764;2022-09-30T08:49:55;101389.47;;;19.36
65600;BMP280;52272;-29.642;-50.764;2022-09-30T08:52:33;101389.13;;;19.08
65600;BMP280;52272;-29.642;-50.764;2022-09-30T08:55:37;101384.81;;;18.96
65600;BMP280;52272;-29.642;-50.764;2022-09-30T08:58:36;101384.63;;;19.00
65600;BMP280;52272;-29.642;-50.764;2022-09-30T09:01:46;101392.28;;;19.07
65600;BMP280;52272;-29.642;-50.764;2022-09-30T09:04:18;101403.50;;;19.60
65600;BMP280;52272;-29.642;-50.764;2022-09-30T09:10:37;101399.06;;;19.17
65600;BMP280;52272;-29.642;-50.764;2022-09-30T09:13:11;101409.78;;;19.77
65600;BMP280;52272;-29.642;-50.764;2022-09-30T09:16:18;101409.59;;;19.80
65600;BMP280;52272;-29.642;-50.764;2022-09-30T09:21:57;101395.06;;;20.39
65600;BMP280;52272;-29.642;-50.764;2022-09-30T09:24:37;101433.09;;;20.61
65600;BMP280;52272;-29.642;-50.764;2022-09-30T09:30:00;101429.28;;;20.84
65600;BMP280;52272;-29.642;-50.764;2022-09-30T09:32:31;101408.44;;;21.01
65600;BMP280;52272;-29.642;-50.764;2022-09-30T09:35:16;101426.97;;;21.14
65600;BMP280;52272;-29.642;-50.764;2022-09-30T09:38:05;101417.97;;;21.55
65600;BMP280;52272;-29.642;-50.764;2022-09-30T09:44:07;101438.19;;;21.65
65600;BMP280;52272;-29.642;-50.764;2022-09-30T09:46:45;101442.38;;;21.77
65600;BMP280;52272;-29.642;-50.764;2022-09-30T09:54:29;101428.84;;;21.88
65600;BMP280;52272;-29.642;-50.764;2022-09-30T09:57:11;101447.31;;;22.22
65600;BMP280;52272;-29.642;-50.764;2022-09-30T10:03:01;101439.63;;;21.39
65600;BMP280;52272;-29.642;-50.764;2022-09-30T10:05:33;101433.03;;;21.72
65600;BMP280;52272;-29.642;-50.764;2022-09-30T10:08:18;101446.34;;;21.92
65600;BMP280;52272;-29.642;-50.764;2022-09-30T10:10:51;101450.06;;;22.06
65600;BMP280;52272;-29.642;-50.764;2022-09-30T10:18:55;101467.03;;;22.67
65600;BMP280;52272;-29.642;-50.764;2022-09-30T10:21:28;101464.97;;;22.83
65600;BMP280;52272;-29.642;-50.764;2022-09-30T10:24:27;101459.75;;;22.96
65600;BMP280;52272;-29.642;-50.764;2022-09-30T10:26:57;101464.66;;;23.03
65600;BMP280;52272;-29.642;-50.764;2022-09-30T10:29:33;101460.47;;;23.48
65600;BMP280;52272;-29.642;-50.764;2022-09-30T10:32:08;101478.50;;;23.51
65600;BMP280;52272;-29.642;-50.764;2022-09-30T10:34:41;101476.56;;;23.46
65600;BMP280;52272;-29.642;-50.764;2022-09-30T10:40:03;101482.59;;;23.23
65600;BMP280;52272;-29.642;-50.764;2022-09-30T10:42:39;101484.63;;;23.57
65600;BMP280;52272;-29.642;-50.764;2022-09-30T10:45:21;101488.28;;;23.65
65600;BMP280;52272;-29.642;-50.764;2022-09-30T10:47:54;101467.69;;;23.46
65600;BMP280;52272;-29.642;-50.764;2022-09-30T10:50:25;101489.97;;;23.33
65600;BMP280;52272;-29.642;-50.764;2022-09-30T10:53:02;101489.41;;;23.51
65600;BMP280;52272;-29.642;-50.764;2022-09-30T10:55:41;101487.34;;;23.63
65600;BMP280;52272;-29.642;-50.764;2022-09-30T11:01:43;101504.56;;;22.74
65600;BMP280;52272;-29.642;-50.764;2022-09-30T11:04:38;101493.22;;;22.42
65600;BMP280;52272;-29.642;-50.764;2022-09-30T11:10:03;101499.00;;;23.06
65600;BMP280;52272;-29.642;-50.764;2022-09-30T11:12:55;101490.31;;;23.13
65600;BMP280;52272;-29.642;-50.764;2022-09-30T11:16:20;101496.06;;;22.99
65600;BMP280;52272;-29.642;-50.764;2022-09-30T11:18:28;101500.47;;;23.07
65600;BMP280;52272;-29.642;-50.764;2022-09-30T11:21:11;101501.34;;;23.72
65600;BMP280;52272;-29.642;-50.764;2022-09-30T11:29:37;101509.72;;;22.72
65600;BMP280;52272;-29.642;-50.764;2022-09-30T11:46:08;101481.81;;;22.60
65600;BMP280;52272;-29.642;-50.764;2022-09-30T11:55:02;101481.03;;;22.82
65600;BMP280;52272;-29.642;-50.764;2022-09-30T11:57:50;101487.00;;;22.75
65600;BMP280;52272;-29.642;-50.764;2022-09-30T12:00:21;101474.88;;;22.81
65600;BMP280;52272;-29.642;-50.764;2022-09-30T12:02:54;101478.50;;;23.05
65600;BMP280;52272;-29.642;-50.764;2022-09-30T12:05:36;101470.94;;;23.33
65600;BMP280;52272;-29.642;-50.764;2022-09-30T12:08:39;101463.09;;;23.19
65600;BMP280;52272;-29.642;-50.764;2022-09-30T12:11:20;101449.72;;;23.26
65600;BMP280;52272;-29.642;-50.764;2022-09-30T12:13:56;101458.66;;;23.62
65600;BMP280;52272;-29.642;-50.764;2022-09-30T12:16:31;101451.84;;;23.50
65600;BMP280;52272;-29.642;-50.764;2022-09-30T12:19:15;101448.72;;;23.64
65600;BMP280;52272;-29.642;-50.764;2022-09-30T12:22:25;101449.53;;;24.18
65600;BMP280;52272;-29.642;-50.764;2022-09-30T12:24:57;101461.09;;;24.48
65600;BMP280;52272;-29.642;-50.764;2022-09-30T12:27:38;101466.94;;;25.00
65600;BMP280;52272;-29.642;-50.764;2022-09-30T12:30:13;101465.94;;;25.97
65600;BMP280;52272;-29.642;-50.764;2022-09-30T12:50:02;101465.56;;;24.69
65600;BMP280;52272;-29.642;-50.764;2022-09-30T12:52:36;101480.94;;;25.27
65600;BMP280;52272;-29.642;-50.764;2022-09-30T12:55:23;101477.00;;;25.41
65600;BMP280;52272;-29.642;-50.764;2022-09-30T12:57:59;101482.63;;;25.30
65600;BMP280;52272;-29.642;-50.764;2022-09-30T13:00:32;101478.09;;;25.33
65600;BMP280;52272;-29.642;-50.764;2022-09-30T13:03:13;101488.03;;;26.37
65600;BMP280;52272;-29.642;-50.764;2022-09-30T13:05:54;101480.28;;;26.88
65600;BMP280;52272;-29.642;-50.764;2022-09-30T13:08:46;101479.66;;;25.47
65600;BMP280;52272;-29.642;-50.764;2022-09-30T13:14:21;101480.03;;;25.19
65600;BMP280;52272;-29.642;-50.764;2022-09-30T13:19:39;101472.91;;;24.56
65600;BMP280;52272;-29.642;-50.764;2022-09-30T13:33:26;101464.72;;;24.32
65600;BMP280;52272;-29.642;-50.764;2022-09-30T13:35:57;101468.25;;;24.27
65600;BMP280;52272;-29.642;-50.764;2022-09-30T13:39:13;101470.72;;;24.01
65600;BMP280;52272;-29.642;-50.764;2022-09-30T13:42:28;101476.44;;;24.51
65600;BMP280;52272;-29.642;-50.764;2022-09-30T13:45:18;101460.22;;;24.40
65600;BMP280;52272;-29.642;-50.764;2022-09-30T13:48:04;101468.72;;;24.97
65600;BMP280;52272;-29.642;-50.764;2022-09-30T13:50:48;101467.06;;;24.89
65600;BMP280;52272;-29.642;-50.764;2022-09-30T13:56:08;101469.78;;;24.89
65600;BMP280;52272;-29.642;-50.764;2022-09-30T14:10:46;101448.00;;;25.38
65600;BMP280;52272;-29.642;-50.764;2022-09-30T14:13:24;101448.78;;;26.09
65600;BMP280;52272;-29.642;-50.764;2022-09-30T14:16:16;101445.22;;;25.88
65600;BMP280;52272;-29.642;-50.764;2022-09-30T14:24:32;101427.81;;;26.04
65600;BMP280;52272;-29.642;-50.764;2022-09-30T14:35:28;101413.78;;;27.06
65600;BMP280;52272;-29.642;-50.764;2022-09-30T14:38:00;101400.41;;;27.23
65600;BMP280;52272;-29.642;-50.764;2022-09-30T14:40:35;101377.00;;;27.62
65600;BMP280;52272;-29.642;-50.764;2022-09-30T14:43:14;101364.56;;;27.89
65600;BMP280;52272;-29.642;-50.764;2022-09-30T14:45:51;101364.94;;;27.37
65600;BMP280;52272;-29.642;-50.764;2022-09-30T14:48:29;101349.88;;;27.24
65600;BMP280;52272;-29.642;-50.764;2022-09-30T14:51:08;101332.81;;;27.30
65600;BMP280;52272;-29.642;-50.764;2022-09-30T14:53:41;101316.94;;;27.09
65600;BMP280;52272;-29.642;-50.764;2022-09-30T14:56:27;101343.75;;;27.30
65600;BMP280;52272;-29.642;-50.764;2022-09-30T14:58:59;101333.84;;;27.48
65600;BMP280;52272;-29.642;-50.764;2022-09-30T15:01:33;101318.31;;;27.23
65600;BMP280;52272;-29.642;-50.764;2022-09-30T15:04:09;101343.72;;;27.86
65600;BMP280;52272;-29.642;-50.764;2022-09-30T15:06:46;101332.75;;;27.79
65600;BMP280;52272;-29.642;-50.764;2022-09-30T15:09:37;101327.91;;;28.57
65600;BMP280;52272;-29.642;-50.764;2022-09-30T15:12:17;101314.69;;;28.26
65600;BMP280;52272;-29.642;-50.764;2022-09-30T15:14:51;101307.06;;;28.77
65600;BMP280;52272;-29.642;-50.764;2022-09-30T15:17:27;101296.16;;;27.61
65600;BMP280;52272;-29.642;-50.764;2022-09-30T15:20:02;101282.53;;;27.41
65600;BMP280;52272;-29.642;-50.764;2022-09-30T15:22:47;101279.50;;;27.04
65600;BMP280;52272;-29.642;-50.764;2022-09-30T15:25:19;101279.19;;;26.87
65600;BMP280;52272;-29.642;-50.764;2022-09-30T15:27:50;101266.75;;;27.27
65600;BMP280;52272;-29.642;-50.764;2022-09-30T15:30:25;101267.84;;;28.02
65600;BMP280;52272;-29.642;-50.764;2022-09-30T15:33:03;101256.78;;;28.59
65600;BMP280;52272;-29.642;-50.764;2022-09-30T15:35:36;101248.56;;;28.52
65600;BMP280;52272;-29.642;-50.764;2022-09-30T15:38:13;101241.25;;;29.53
65600;BMP280;52272;-29.642;-50.764;2022-09-30T15:40:47;101236.00;;;29.40
65600;BMP280;52272;-29.642;-50.764;2022-09-30T15:43:43;101237.81;;;29.45
65600;BMP280;52272;-29.642;-50.764;2022-09-30T15:46:17;101234.25;;;29.60
65600;BMP280;52272;-29.642;-50.764;2022-09-30T15:48:49;101223.00;;;28.49
65600;BMP280;52272;-29.642;-50.764;2022-09-30T15:51:37;101226.97;;;28.11
65600;BMP280;52272;-29.642;-50.764;2022-09-30T15:56:44;101195.75;;;27.56
65600;BMP280;52272;-29.642;-50.764;2022-09-30T15:59:16;101195.16;;;28.08
65600;BMP280;52272;-29.642;-50.764;2022-09-30T16:01:48;101190.78;;;28.80
65600;BMP280;52272;-29.642;-50.764;2022-09-30T16:07:08;101181.75;;;29.48
65600;BMP280;52272;-29.642;-50.764;2022-09-30T16:09:40;101167.34;;;29.40
65600;BMP280;52272;-29.642;-50.764;2022-09-30T16:17:38;101167.66;;;31.00
65600;BMP280;52272;-29.642;-50.764;2022-09-30T16:22:50;101175.38;;;30.68
65600;BMP280;52272;-29.642;-50.764;2022-09-30T16:28:12;101152.16;;;29.39
65600;BMP280;52272;-29.642;-50.764;2022-09-30T16:30:48;101154.38;;;29.33
65600;BMP280;52272;-29.642;-50.764;2022-09-30T16:33:19;101149.47;;;28.78
65600;BMP280;52272;-29.642;-50.764;2022-09-30T16:35:49;101157.94;;;28.50
65600;BMP280;52272;-29.642;-50.764;2022-09-30T16:38:21;101160.69;;;29.19
65600;BMP280;52272;-29.642;-50.764;2022-09-30T16:40:55;101157.19;;;28.57
65600;BMP280;52272;-29.642;-50.764;2022-09-30T16:43:26;101156.97;;;27.88
65600;BMP280;52272;-29.642;-50.764;2022-09-30T16:45:57;101156.63;;;27.33
65600;BMP280;52272;-29.642;-50.764;2022-09-30T16:48:31;101153.75;;;27.46
65600;BMP280;52272;-29.642;-50.764;2022-09-30T16:51:13;101161.72;;;27.02
65600;BMP280;52272;-29.642;-50.764;2022-09-30T16:53:43;101165.78;;;26.80
65600;BMP280;52272;-29.642;-50.764;2022-09-30T16:56:18;101170.41;;;26.93
65600;BMP280;52272;-29.642;-50.764;2022-09-30T16:58:48;101171.75;;;26.79
65600;BMP280;52272;-29.642;-50.764;2022-09-30T17:01:21;101171.88;;;26.66
65600;BMP280;52272;-29.642;-50.764;2022-09-30T17:03:52;101168.22;;;26.43
65600;BMP280;52272;-29.642;-50.764;2022-09-30T17:06:27;101168.25;;;26.10
65600;BMP280;52272;-29.642;-50.764;2022-09-30T17:08:58;101181.72;;;26.08
65600;BMP280;52272;-29.642;-50.764;2022-09-30T17:11:33;101191.81;;;25.27
65600;BMP280;52272;-29.642;-50.764;2022-09-30T17:14:04;101183.59;;;25.02
65600;BMP280;52272;-29.642;-50.764;2022-09-30T17:16:35;101186.44;;;25.35
65600;BMP280;52272;-29.642;-50.764;2022-09-30T17:19:06;101166.63;;;24.96
65600;BMP280;52272;-29.642;-50.764;2022-09-30T17:21:37;101187.06;;;25.28
65600;BMP280;52272;-29.642;-50.764;2022-09-30T17:24:08;101176.25;;;25.10
65600;BMP280;52272;-29.642;-50.764;2022-09-30T17:26:38;101167.84;;;24.82
65600;BMP280;52272;-29.642;-50.764;2022-09-30T17:29:09;101153.03;;;24.64
65600;BMP280;52272;-29.642;-50.764;2022-09-30T17:31:59;101144.28;;;24.21